Time;durP1;ratioP1;P1;durP2;ratioP2;P2;SDS_P1;SDS_P2;PMS_P1;PMS_P2;Temp;Humidity;BMP_temperature;BMP_pressure;BME280_temperature;BME280_humidity;BME280_pressure;Samples;Min_cycle;Max_cycle;Signal;HPM_P1;HPM_P2
2021/08/25 05:02:35;;;;;;;43.50;24.58;;;10.40;86.30;;;;;;3866749;23;20062;-86
2021/08/25 05:05:04;;;;;;;43.88;24.95;;;11.10;86.90;;;;;;4930336;29;20111;-87
2021/08/25 05:07:30;;;;;;;44.10;24.80;;;10.80;86.70;;;;;;4908705;29;20029;-88
2021/08/25 05:09:57;;;;;;;45.15;24.77;;;10.90;86.80;;;;;;4936789;29;20091;-88
2021/08/25 05:12:23;;;;;;;42.70;23.23;;;10.50;86.40;;;;;;4904480;29;20031;-88
2021/08/25 05:14:50;;;;;;;42.88;23.63;;;10.60;86.60;;;;;;4920289;29;20024;-88
2021/08/25 05:17:17;;;;;;;49.63;26.98;;;10.70;86.70;;;;;;4923730;29;20039;-90
2021/08/25 05:19:46;;;;;;;56.30;28.10;;;10.60;86.60;;;;;;4926624;29;20019;-89
2021/08/25 05:22:11;;;;;;;53.58;28.10;;;10.80;86.60;;;;;;4908183;29;20198;-91
2021/08/25 05:24:38;;;;;;;62.58;29.70;;;10.80;86.80;;;;;;4911285;29;20075;-89
2021/08/25 05:27:06;;;;;;;53.47;28.20;;;10.80;86.70;;;;;;4925621;29;20027;-91
2021/08/25 05:29:31;;;;;;;36.42;21.92;;;10.90;86.70;;;;;;4926386;29;20515;-83
2021/08/25 05:31:57;;;;;;;47.42;26.70;;;11.00;86.90;;;;;;4920159;29;20031;-84
2021/08/25 05:34:25;;;;;;;43.65;24.48;;;11.40;87.20;;;;;;4904116;29;20036;-84
2021/08/25 05:36:51;;;;;;;40.42;24.67;;;11.20;87.10;;;;;;4905305;29;20494;-87
2021/08/25 05:39:16;;;;;;;40.20;24.42;;;11.30;87.30;;;;;;4908568;29;20036;-86
2021/08/25 05:41:42;;;;;;;38.85;23.55;;;11.80;87.60;;;;;;4902302;29;20035;-83
2021/08/25 05:44:08;;;;;;;48.42;27.30;;;11.40;87.50;;;;;;4934847;29;20092;-84
2021/08/25 05:46:34;;;;;;;58.80;29.83;;;11.30;87.30;;;;;;4943173;29;20088;-83
2021/08/25 05:49:00;;;;;;;46.63;26.75;;;11.60;87.30;;;;;;4955685;29;20403;-90
2021/08/25 05:51:28;;;;;;;58.95;30.42;;;12.20;87.60;;;;;;4944609;29;20027;-90
2021/08/25 05:53:54;;;;;;;70.18;31.85;;;11.70;87.20;;;;;;4911047;29;20416;-86
2021/08/25 05:56:20;;;;;;;48.25;27.27;;;11.70;86.90;;;;;;4940251;29;20055;-85
2021/08/25 05:58:46;;;;;;;62.17;31.08;;;11.90;87.10;;;;;;4923156;29;20494;-87
2021/08/25 06:01:16;;;;;;;45.28;26.98;;;11.80;87.40;;;;;;4924555;29;20052;-87
2021/08/25 06:03:46;;;;;;;47.60;28.17;;;12.10;87.80;;;;;;4922713;29;20122;-84
2021/08/25 06:06:12;;;;;;;51.47;28.95;;;11.70;87.40;;;;;;4923152;29;20171;-84
2021/08/25 06:08:41;;;;;;;51.70;28.23;;;12.20;87.50;;;;;;4939578;29;20024;-86
2021/08/25 06:11:11;;;;;;;50.45;27.48;;;12.30;87.30;;;;;;4922287;29;20492;-86
2021/08/25 06:13:36;;;;;;;54.42;27.27;;;12.40;87.00;;;;;;4939711;29;20036;-85
2021/08/25 06:16:03;;;;;;;60.97;30.23;;;12.60;86.90;;;;;;4907205;29;20036;-86
2021/08/25 06:18:29;;;;;;;54.50;29.27;;;12.40;86.70;;;;;;4923059;29;20380;-86
2021/08/25 06:20:59;;;;;;;47.50;26.05;;;12.50;86.70;;;;;;4907298;29;20027;-85
2021/08/25 06:23:25;;;;;;;56.83;28.80;;;12.80;87.20;;;;;;4922909;29;20023;-85
2021/08/25 06:25:53;;;;;;;61.00;29.98;;;12.60;87.20;;;;;;4939825;29;20034;-85
2021/08/25 06:28:19;;;;;;;55.38;28.85;;;12.80;87.00;;;;;;4923012;29;20079;-85
2021/08/25 06:30:44;;;;;;;55.38;28.15;;;12.70;86.70;;;;;;4922781;29;20047;-84
2021/08/25 06:33:10;;;;;;;44.10;25.85;;;13.20;86.90;;;;;;4922600;29;20031;-85
2021/08/25 06:35:38;;;;;;;35.28;22.40;;;12.80;86.80;;;;;;4939869;29;20027;-84
2021/08/25 06:38:07;;;;;;;38.50;23.35;;;12.90;87.20;;;;;;4939392;29;20039;-86
2021/08/25 06:40:32;;;;;;;31.92;22.17;;;13.00;87.20;;;;;;4939192;29;20028;-83
2021/08/25 06:42:59;;;;;;;37.33;23.13;;;13.10;87.20;;;;;;4939259;29;20027;-85
2021/08/25 06:45:25;;;;;;;40.17;24.67;;;13.40;87.20;;;;;;4939433;29;20032;-85
2021/08/25 06:47:53;;;;;;;43.83;24.25;;;13.20;87.00;;;;;;4921924;29;20028;-84
2021/08/25 06:50:30;;;;;;;40.60;23.73;;;13.60;87.20;;;;;;4920317;29;20092;-85
2021/08/25 06:53:00;;;;;;;32.03;19.35;;;13.30;86.80;;;;;;4939438;29;20478;-85
2021/08/25 06:55:29;;;;;;;29.77;19.80;;;13.90;87.30;;;;;;4938929;29;20046;-85
2021/08/25 06:58:02;;;;;;;33.67;20.05;;;13.40;86.90;;;;;;4939952;29;20047;-84
2021/08/25 07:00:30;;;;;;;36.42;22.58;;;13.40;87.00;;;;;;4926500;29;20083;-85
2021/08/25 07:03:02;;;;;;;34.28;20.45;;;13.50;87.00;;;;;;4922980;29;20118;-84
2021/08/25 07:05:33;;;;;;;31.95;20.10;;;13.60;87.10;;;;;;4922437;29;20104;-85
2021/08/25 07:08:05;;;;;;;22.77;15.88;;;13.70;87.00;;;;;;4904299;29;20044;-84
2021/08/25 07:10:38;;;;;;;23.83;15.07;;;13.80;87.20;;;;;;4919642;29;20095;-84
2021/08/25 07:13:04;;;;;;;23.13;15.73;;;13.90;87.20;;;;;;4917904;29;20032;-83
2021/08/25 07:15:29;;;;;;;19.75;14.80;;;13.90;87.20;;;;;;4919569;29;20050;-84
2021/08/25 07:17:55;;;;;;;19.30;14.05;;;14.10;87.40;;;;;;4918385;29;20514;-84
2021/08/25 07:20:21;;;;;;;19.10;13.25;;;14.10;87.20;;;;;;4919388;29;20098;-85
2021/08/25 07:22:46;;;;;;;20.00;12.93;;;14.20;87.20;;;;;;4918297;29;20474;-84
2021/08/25 07:25:18;;;;;;;17.33;11.82;;;14.30;86.90;;;;;;4919403;29;20032;-84
2021/08/25 07:27:44;;;;;;;14.45;10.65;;;14.30;87.10;;;;;;4919241;29;20016;-84
2021/08/25 07:30:13;;;;;;;18.58;11.90;;;14.40;87.40;;;;;;4919188;29;20036;-83
2021/08/25 07:32:40;;;;;;;16.00;11.55;;;14.50;87.30;;;;;;4902342;29;20481;-84
2021/08/25 07:35:10;;;;;;;16.63;12.05;;;14.50;87.70;;;;;;4918387;29;20529;-84
2021/08/25 07:37:38;;;;;;;15.00;11.45;;;14.60;87.00;;;;;;4918040;29;20085;-84
2021/08/25 07:40:05;;;;;;;14.80;10.32;;;14.70;87.10;;;;;;4925701;29;20039;-82
2021/08/25 07:42:31;;;;;;;14.75;10.50;;;14.80;86.90;;;;;;4925870;29;20028;-83
2021/08/25 07:44:57;;;;;;;17.77;10.93;;;14.80;87.00;;;;;;4922656;29;20473;-82
2021/08/25 07:47:25;;;;;;;14.20;9.75;;;14.30;86.90;;;;;;4921590;29;20079;-83
2021/08/25 07:50:06;;;;;;;15.38;10.13;;;15.00;87.40;;;;;;4919466;29;20047;-83
2021/08/25 07:52:32;;;;;;;14.52;8.68;;;15.10;87.30;;;;;;4918541;29;20033;-84
2021/08/25 07:55:00;;;;;;;12.50;7.43;;;15.20;87.30;;;;;;4917699;29;20024;-84
2021/08/25 07:57:29;;;;;;;12.55;7.93;;;15.80;88.10;;;;;;4918696;29;20495;-84
2021/08/25 07:59:54;;;;;;;13.52;7.63;;;15.50;88.40;;;;;;4919179;29;20149;-84
2021/08/25 08:02:20;;;;;;;11.45;7.50;;;15.80;88.10;;;;;;4929772;29;20527;-84
2021/08/25 08:04:49;;;;;;;12.57;6.82;;;14.80;87.00;;;;;;4937550;29;20511;-82
2021/08/25 08:07:15;;;;;;;11.32;6.60;;;15.90;87.50;;;;;;4937597;29;20060;-82
2021/08/25 08:09:40;;;;;;;12.80;6.72;;;15.80;87.40;;;;;;4936567;29;20090;-83
2021/08/25 08:12:07;;;;;;;11.05;6.22;;;15.90;87.20;;;;;;4937484;29;20102;-84
2021/08/25 08:14:34;;;;;;;10.93;6.45;;;16.00;87.30;;;;;;4919882;29;20027;-83
2021/08/25 08:17:02;;;;;;;10.82;6.13;;;16.10;87.40;;;;;;4919941;29;20619;-83
2021/08/25 08:19:30;;;;;;;9.90;5.78;;;16.10;87.10;;;;;;4920575;29;20396;-83
2021/08/25 08:22:00;;;;;;;9.77;5.82;;;16.30;87.60;;;;;;4937426;29;20056;-85
2021/08/25 08:24:27;;;;;;;11.23;6.00;;;16.90;88.10;;;;;;4937263;29;20027;-84
2021/08/25 08:26:58;;;;;;;13.15;5.50;;;16.50;87.70;;;;;;4937355;29;20082;-86
2021/08/25 08:29:28;;;;;;;10.10;5.00;;;16.60;87.90;;;;;;4937163;29;20487;-82
2021/08/25 08:31:54;;;;;;;10.32;5.10;;;17.20;88.10;;;;;;4937042;29;20032;-82
2021/08/25 08:34:20;;;;;;;10.18;5.43;;;16.50;87.60;;;;;;4937190;29;20540;-83
2021/08/25 08:36:45;;;;;;;10.18;5.80;;;17.00;87.80;;;;;;4937159;29;20095;-84
2021/08/25 08:39:11;;;;;;;11.75;4.60;;;17.00;87.80;;;;;;4937203;29;20494;-84
2021/08/25 08:41:41;;;;;;;9.45;4.65;;;17.20;88.10;;;;;;4904071;29;20044;-84
2021/08/25 08:44:12;;;;;;;7.95;4.10;;;17.30;88.10;;;;;;4904208;29;20479;-84
2021/08/25 08:46:40;;;;;;;11.15;4.75;;;17.50;88.10;;;;;;4918209;29;20028;-84
2021/08/25 08:49:07;;;;;;;8.10;4.32;;;17.60;88.50;;;;;;4919199;29;20075;-85
2021/08/25 08:51:37;;;;;;;8.65;4.03;;;17.80;88.10;;;;;;4936230;29;20079;-84
2021/08/25 08:54:07;;;;;;;8.48;3.78;;;17.70;87.90;;;;;;4919248;29;20451;-84
2021/08/25 08:56:34;;;;;;;7.95;3.60;;;18.40;87.90;;;;;;4919593;29;20123;-84
2021/08/25 08:59:00;;;;;;;9.73;3.47;;;18.00;87.80;;;;;;4936697;29;20098;-84
2021/08/25 09:01:30;;;;;;;8.00;3.72;;;18.10;88.10;;;;;;4936534;29;20027;-84
2021/08/25 09:04:01;;;;;;;9.27;3.50;;;18.30;88.40;;;;;;4936320;29;20032;-84
2021/08/25 09:06:44;;;;;;;8.68;3.63;;;18.50;88.80;;;;;;4919428;29;20048;-85
2021/08/25 09:09:14;;;;;;;9.43;3.78;;;19.60;89.10;;;;;;4935705;29;20054;-84
2021/08/25 09:11:53;;;;;;;7.43;3.35;;;19.60;89.30;;;;;;4936036;29;20141;-84
2021/08/25 09:14:26;;;;;;;8.77;3.33;;;19.70;88.40;;;;;;4934104;29;20028;-84
2021/08/25 09:16:51;;;;;;;7.93;3.42;;;19.30;88.20;;;;;;4936108;29;20024;-84
2021/08/25 09:19:18;;;;;;;11.02;3.78;;;19.00;87.80;;;;;;4919259;29;20046;-84
2021/08/25 09:21:45;;;;;;;9.63;3.85;;;19.40;87.80;;;;;;4918734;29;20429;-85
2021/08/25 09:24:12;;;;;;;8.57;3.53;;;20.00;87.80;;;;;;4918836;29;20028;-84
2021/08/25 09:27:05;;;;;;;10.90;3.38;;;20.10;87.70;;;;;;4936142;29;20024;-84
2021/08/25 09:29:31;;;;;;;8.70;3.40;;;20.20;87.30;;;;;;4936215;29;20039;-84
2021/08/25 09:31:59;;;;;;;8.10;3.45;;;20.60;88.30;;;;;;4936469;29;20383;-83
2021/08/25 09:34:33;;;;;;;8.55;3.03;;;20.80;88.10;;;;;;4936352;29;20032;-83
2021/08/25 09:37:05;;;;;;;8.10;3.40;;;21.20;87.50;;;;;;4936333;29;20028;-84
2021/08/25 09:39:31;;;;;;;9.90;3.20;;;21.60;87.40;;;;;;4920058;29;20110;-84
2021/08/25 09:41:57;;;;;;;8.40;3.20;;;22.20;87.30;;;;;;4931784;29;20096;-84
2021/08/25 09:44:23;;;;;;;8.23;3.15;;;22.40;86.40;;;;;;4931175;29;20034;-83
2021/08/25 09:46:50;;;;;;;8.57;3.33;;;22.60;85.20;;;;;;4945327;29;20020;-83
2021/08/25 09:49:17;;;;;;;6.20;2.47;;;22.70;84.50;;;;;;4941443;29;20357;-84
2021/08/25 09:51:43;;;;;;;8.20;3.00;;;22.80;84.80;;;;;;4936833;29;20090;-84
2021/08/25 09:54:11;;;;;;;7.72;2.97;;;23.00;83.90;;;;;;4936545;29;20440;-84
2021/08/25 09:56:40;;;;;;;6.40;2.75;;;23.00;83.60;;;;;;4918806;29;20027;-84
2021/08/25 09:59:08;;;;;;;7.28;3.08;;;23.20;83.30;;;;;;4903416;29;20376;-84
2021/08/25 10:01:35;;;;;;;8.32;3.10;;;23.40;82.90;;;;;;4919147;29;20472;-84
2021/08/25 10:04:07;;;;;;;7.82;3.03;;;23.30;82.80;;;;;;4919494;29;20484;-84
2021/08/25 10:06:37;;;;;;;8.07;3.35;;;23.40;82.80;;;;;;4936377;29;20384;-84
2021/08/25 10:09:06;;;;;;;7.82;3.15;;;23.50;82.80;;;;;;4918608;29;20095;-84
2021/08/25 10:11:35;;;;;;;8.88;3.13;;;23.60;82.40;;;;;;4917996;29;20039;-84
2021/08/25 10:14:12;;;;;;;6.45;2.85;;;23.70;82.60;;;;;;4935924;29;20035;-84
2021/08/25 10:16:42;;;;;;;7.95;3.00;;;23.80;82.00;;;;;;4935828;29;20042;-85
2021/08/25 10:19:37;;;;;;;7.90;3.00;;;23.70;81.10;;;;;;4919200;29;20031;-85
2021/08/25 10:22:18;;;;;;;8.43;3.15;;;23.70;81.00;;;;;;4919031;29;20031;-85
2021/08/25 10:24:53;;;;;;;8.52;3.05;;;23.80;82.00;;;;;;4919205;29;20035;-85
2021/08/25 10:27:24;;;;;;;6.32;2.97;;;24.00;82.30;;;;;;4919448;29;20019;-85
2021/08/25 10:30:24;;;;;;;8.93;3.10;;;24.20;82.00;;;;;;4904327;29;20496;-82
2021/08/25 10:32:56;;;;;;;7.03;2.83;;;24.40;81.70;;;;;;4919792;29;20088;-84
2021/08/25 10:35:33;;;;;;;7.30;2.90;;;24.50;80.70;;;;;;4922538;29;20028;-85
2021/08/25 10:38:15;;;;;;;7.55;3.00;;;24.80;80.30;;;;;;4922532;29;20024;-84
2021/08/25 10:40:44;;;;;;;7.20;2.85;;;25.60;80.60;;;;;;4922721;29;20123;-85
2021/08/25 10:43:10;;;;;;;7.00;2.70;;;25.40;80.50;;;;;;4922630;29;20027;-84
2021/08/25 10:45:45;;;;;;;6.47;2.83;;;25.40;80.60;;;;;;4922007;29;20391;-85
2021/08/25 10:48:13;;;;;;;6.90;3.05;;;26.20;80.10;;;;;;4922419;29;20024;-85
2021/08/25 10:50:53;;;;;;;5.93;2.60;;;26.60;79.60;;;;;;4939450;29;20398;-83
2021/08/25 10:53:28;;;;;;;8.30;3.15;;;27.10;78.20;;;;;;4939122;29;20099;-84
2021/08/25 10:56:15;;;;;;;7.50;3.08;;;27.90;78.00;;;;;;4939599;29;20023;-82
2021/08/25 10:58:50;;;;;;;8.48;2.88;;;28.20;77.00;;;;;;4922179;29;20488;-83
2021/08/25 11:01:20;;;;;;;6.10;2.75;;;28.70;75.70;;;;;;4921863;29;20058;-85
2021/08/25 11:04:04;;;;;;;6.60;3.10;;;29.40;75.40;;;;;;4921310;29;20055;-83
2021/08/25 11:06:30;;;;;;;;;;;29.60;73.20;;;;;;4939643;29;20119;-84
2021/08/25 11:09:33;;;;;;;5.00;2.50;;;30.20;73.80;;;;;;4921890;29;20339;-84
2021/08/25 11:12:18;;;;;;;6.30;2.85;;;30.60;72.50;;;;;;4911323;29;20050;-84
2021/08/25 11:14:47;;;;;;;6.75;2.80;;;31.20;72.30;;;;;;4922002;29;20027;-84
2021/08/25 11:17:23;;;;;;;7.32;3.00;;;31.70;71.40;;;;;;4921856;29;20032;-84
2021/08/25 11:19:56;;;;;;;6.82;2.88;;;32.20;70.10;;;;;;4938135;29;20492;-84
2021/08/25 11:22:39;;;;;;;6.75;2.88;;;32.60;70.20;;;;;;4921584;29;20055;-84
2021/08/25 11:25:08;;;;;;;6.95;2.80;;;33.10;68.40;;;;;;4921243;29;20038;-84
2021/08/25 11:27:42;;;;;;;7.53;3.03;;;33.40;67.00;;;;;;4921724;29;20040;-84
2021/08/25 11:30:26;;;;;;;6.30;2.85;;;33.70;67.20;;;;;;4925285;29;20042;-85
2021/08/25 11:33:08;;;;;;;6.18;2.75;;;34.00;65.50;;;;;;4924709;29;20039;-85
2021/08/25 11:35:45;;;;;;;5.63;2.75;;;34.30;66.20;;;;;;4924292;29;20059;-85
2021/08/25 11:38:14;;;;;;;6.78;3.17;;;34.40;66.20;;;;;;4919646;29;20508;-82
2021/08/25 11:40:44;;;;;;;6.57;2.90;;;34.80;66.90;;;;;;4921977;29;20020;-83
2021/08/25 11:43:18;;;;;;;5.85;2.67;;;35.20;65.40;;;;;;4922843;29;20024;-83
2021/08/25 11:45:58;;;;;;;7.18;3.00;;;35.50;64.90;;;;;;4920629;29;20024;-83
2021/08/25 11:48:28;;;;;;;7.15;2.72;;;35.80;64.70;;;;;;4918390;29;20028;-84
2021/08/25 11:50:56;;;;;;;6.05;3.10;;;36.20;64.70;;;;;;4927057;29;20072;-83
2021/08/25 11:53:25;;;;;;;6.35;2.80;;;36.50;64.10;;;;;;4929797;29;20016;-84
2021/08/25 11:55:55;;;;;;;6.78;2.80;;;36.80;64.60;;;;;;4926417;29;20396;-83
2021/08/25 11:58:41;;;;;;;4.55;2.50;;;37.10;64.00;;;;;;4942814;29;20057;-82
2021/08/25 12:01:30;;;;;;;6.57;2.90;;;37.40;61.90;;;;;;4932770;29;20031;-82
2021/08/25 12:03:57;;;;;;;7.07;3.20;;;37.60;62.90;;;;;;4923998;29;20463;-82
2021/08/25 12:06:43;;;;;;;6.43;2.80;;;37.90;61.80;;;;;;4940913;29;20095;-81
2021/08/25 12:09:09;;;;;;;7.07;3.20;;;38.20;62.80;;;;;;4940710;29;20087;-82
2021/08/25 12:11:53;;;;;;;6.38;3.00;;;38.60;63.60;;;;;;4924294;29;20040;-84
2021/08/25 12:14:20;;;;;;;5.90;2.80;;;39.10;61.60;;;;;;4940033;29;20075;-84
2021/08/25 12:17:04;;;;;;;7.07;2.90;;;39.20;60.60;;;;;;4940709;29;20424;-86
2021/08/25 12:19:39;;;;;;;6.43;2.70;;;39.30;60.40;;;;;;4923388;29;20499;-85
2021/08/25 12:22:30;;;;;;;5.05;2.50;;;39.00;62.50;;;;;;4940646;29;20051;-86
2021/08/25 12:24:57;;;;;;;6.88;2.92;;;39.10;60.50;;;;;;4923208;29;20027;-86
2021/08/25 12:27:23;;;;;;;5.93;2.70;;;39.50;63.30;;;;;;4921751;29;20504;-87
2021/08/25 12:29:50;;;;;;;6.00;3.00;;;40.10;64.20;;;;;;4923887;29;20039;-86
2021/08/25 12:32:16;;;;;;;5.65;2.75;;;40.70;62.70;;;;;;4922980;29;20456;-86
2021/08/25 12:35:02;;;;;;;6.25;3.00;;;41.30;61.30;;;;;;4925229;29;20027;-87
2021/08/25 12:37:51;;;;;;;6.70;3.47;;;41.90;60.90;;;;;;4907467;29;20476;-87
2021/08/25 12:40:22;;;;;;;8.82;3.38;;;42.30;59.60;;;;;;4924626;29;20435;-86
2021/08/25 12:42:48;;;;;;;8.32;3.67;;;42.40;58.70;;;;;;4940703;29;20503;-85
2021/08/25 12:45:14;;;;;;;7.18;3.15;;;42.50;58.10;;;;;;4923199;29;20510;-83
2021/08/25 12:47:45;;;;;;;6.95;3.50;;;42.80;59.40;;;;;;4942033;29;20026;-83
2021/08/25 12:50:33;;;;;;;6.15;3.13;;;43.20;58.80;;;;;;4920302;29;20065;-83
2021/08/25 12:56:15;;;;;;;6.53;2.80;;;43.10;58.40;;;;;;4925279;29;20051;-83
2021/08/25 12:58:41;;;;;;;5.90;3.00;;;43.40;57.50;;;;;;4921859;29;20028;-85
2021/08/25 13:04:23;;;;;;;5.72;2.90;;;43.80;58.20;;;;;;4832518;29;20566;-84
2021/08/25 13:07:00;;;;;;;5.97;2.85;;;44.00;56.60;;;;;;4891684;29;20044;-84
2021/08/25 13:09:25;;;;;;;5.68;2.75;;;44.20;57.70;;;;;;4888754;29;20051;-84
2021/08/25 13:12:35;;;;;;;6.60;2.90;;;44.40;56.40;;;;;;4923798;29;20099;-84
2021/08/25 13:18:16;;;;;;;6.60;2.95;;;44.70;55.10;;;;;;4878718;29;20129;-87
2021/08/25 13:20:41;;;;;;;5.75;2.78;;;45.00;56.60;;;;;;4864857;29;20025;-88
2021/08/25 13:23:07;;;;;;;5.53;2.88;;;45.40;56.10;;;;;;4866312;29;20036;-88
2021/08/25 13:25:36;;;;;;;6.57;2.85;;;45.70;55.20;;;;;;4898548;29;20134;-87
2021/08/25 13:28:45;;;;;;;6.80;3.10;;;46.20;55.30;;;;;;4920809;29;20035;-85
2021/08/25 13:31:37;;;;;;;6.00;2.80;;;47.00;57.20;;;;;;4900833;29;20048;-85
2021/08/25 13:34:30;;;;;;;7.10;3.00;;;46.40;51.60;;;;;;4891206;29;20061;-85
2021/08/25 13:37:29;;;;;;;4.35;2.50;;;45.70;55.70;;;;;;4887100;29;20115;-85
2021/08/25 13:40:41;;;;;;;6.25;2.90;;;46.70;57.40;;;;;;4901292;29;20131;-84
2021/08/25 13:43:33;;;;;;;5.15;2.83;;;47.90;55.80;;;;;;4907198;29;20066;-85
2021/08/25 13:49:23;;;;;;;8.23;3.33;;;49.20;52.20;;;;;;4858217;29;20033;-85
2021/08/25 13:52:38;;;;;;;;;;;;;;;;;;;;;
2021/08/25 13:55:50;;;;;;;5.55;2.90;;;49.60;52.10;;;;;;4919398;29;20575;-83
2021/08/25 13:58:32;;;;;;;5.20;2.90;;;49.70;52.20;;;;;;4903149;29;20036;-83
2021/08/25 14:01:12;;;;;;;6.35;3.10;;;49.80;49.90;;;;;;4874369;29;20090;-83
2021/08/25 14:04:49;;;;;;;;;;;;;;;;;;;;;
2021/08/25 14:07:06;;;;;;;5.10;3.08;;;50.20;49.60;;;;;;4925302;29;20043;-82
2021/08/25 14:09:31;;;;;;;5.22;3.13;;;50.30;48.90;;;;;;4925254;29;20036;-82
2021/08/25 14:11:57;;;;;;;7.00;3.35;;;50.60;49.00;;;;;;4909390;29;20088;-81
2021/08/25 14:14:22;;;;;;;5.30;3.30;;;50.80;46.60;;;;;;4942932;29;20034;-82
2021/08/25 14:16:56;;;;;;;7.00;3.50;;;50.90;46.20;;;;;;4942207;29;20035;-81
2021/08/25 14:19:22;;;;;;;6.68;3.40;;;50.90;44.80;;;;;;4923187;29;20052;-82
2021/08/25 14:21:48;;;;;;;5.95;3.50;;;51.30;45.70;;;;;;4942456;29;20440;-82
2021/08/25 14:24:13;;;;;;;5.88;3.75;;;51.70;45.50;;;;;;4925636;29;20039;-82
2021/08/25 14:26:42;;;;;;;6.45;3.60;;;52.20;44.70;;;;;;4941361;29;20032;-82
2021/08/25 14:29:12;;;;;;;6.07;3.67;;;52.10;44.20;;;;;;4941868;29;20052;-82
2021/08/25 14:31:38;;;;;;;4.85;3.15;;;52.10;43.20;;;;;;4924183;29;20039;-81
2021/08/25 14:34:03;;;;;;;7.20;3.40;;;52.00;42.20;;;;;;4943847;29;20067;-83
2021/08/25 14:36:32;;;;;;;5.32;3.15;;;51.40;42.90;;;;;;4935858;29;20107;-85
2021/08/25 14:38:57;;;;;;;4.88;2.90;;;51.10;44.60;;;;;;4935611;29;20022;-85
2021/08/25 14:41:23;;;;;;;4.88;2.75;;;51.00;45.00;;;;;;4928549;29;20024;-86
2021/08/25 14:43:49;;;;;;;5.50;2.90;;;50.60;43.60;;;;;;4926215;29;20043;-85
2021/08/25 14:46:14;;;;;;;5.53;2.90;;;48.90;41.70;;;;;;4942949;29;20091;-85
2021/08/25 14:48:41;;;;;;;5.85;3.08;;;47.70;43.50;;;;;;4941756;29;20023;-85
2021/08/25 14:51:07;;;;;;;5.60;2.70;;;46.80;45.80;;;;;;4924723;29;20067;-85
2021/08/25 14:53:35;;;;;;;5.22;2.85;;;45.40;44.30;;;;;;4925209;29;20024;-85
2021/08/25 14:56:02;;;;;;;6.45;3.10;;;44.00;46.60;;;;;;4922344;29;20042;-85
2021/08/25 14:58:34;;;;;;;7.82;3.55;;;43.90;48.90;;;;;;4924621;29;20020;-84
2021/08/25 15:01:03;;;;;;;7.22;3.15;;;44.40;50.20;;;;;;4905362;29;20380;-84
2021/08/25 15:03:31;;;;;;;4.85;2.70;;;45.10;51.20;;;;;;4905188;29;20048;-84
2021/08/25 15:05:59;;;;;;;8.05;3.38;;;45.70;50.10;;;;;;4905816;29;20050;-84
2021/08/25 15:08:25;;;;;;;5.68;2.85;;;46.20;48.40;;;;;;4906522;29;20039;-84
2021/08/25 15:11:01;;;;;;;;;;;;;;;;;;;;;
2021/08/25 15:13:26;;;;;;;6.22;3.10;;;47.00;48.50;;;;;;4941807;29;20024;-85
2021/08/25 15:15:55;;;;;;;5.70;3.00;;;47.40;47.60;;;;;;4925164;29;20117;-86
2021/08/25 15:18:21;;;;;;;6.03;3.13;;;47.80;47.00;;;;;;4925428;29;20123;-86
2021/08/25 15:20:49;;;;;;;5.57;2.95;;;48.10;46.60;;;;;;4925305;29;20085;-83
2021/08/25 15:23:28;;;;;;;5.40;2.78;;;48.30;45.70;;;;;;4925159;29;20028;-86
2021/08/25 15:25:59;;;;;;;6.18;2.92;;;48.50;46.10;;;;;;4924813;29;20024;-86
2021/08/25 15:28:34;;;;;;;;;;;;;;;;;;;;;
2021/08/25 15:31:05;;;;;;;6.53;3.10;;;48.60;45.10;;;;;;4942752;29;20050;-86
2021/08/25 15:33:44;;;;;;;5.75;2.90;;;48.60;45.20;;;;;;4925655;29;20059;-86
2021/08/25 15:36:22;;;;;;;5.13;2.90;;;48.60;45.40;;;;;;4924674;29;20045;-86
2021/08/25 15:38:51;;;;;;;5.97;2.80;;;48.60;44.50;;;;;;4908788;29;20042;-86
2021/08/25 15:41:20;;;;;;;5.72;2.90;;;48.10;43.70;;;;;;4925288;29;20038;-86
2021/08/25 15:43:53;;;;;;;7.82;3.40;;;47.60;44.30;;;;;;4924921;29;20115;-86
2021/08/25 15:46:20;;;;;;;7.10;3.03;;;47.30;44.50;;;;;;4909815;29;20039;-85
2021/08/25 15:48:59;;;;;;;;;;;;;;;;;;;;;
2021/08/25 15:51:36;;;;;;;6.38;3.05;;;47.40;44.80;;;;;;4928036;29;20051;-86
2021/08/25 15:54:03;;;;;;;6.22;3.10;;;47.60;43.80;;;;;;4928242;29;20151;-86
2021/08/25 15:56:32;;;;;;;5.75;2.95;;;47.60;44.30;;;;;;4930592;29;20063;-86
2021/08/25 15:59:04;;;;;;;5.88;2.60;;;47.50;43.50;;;;;;4945827;28;20012;-85
2021/08/25 16:01:38;;;;;;;5.90;3.08;;;47.10;42.60;;;;;;4939784;29;20031;-87
2021/08/25 16:08:00;;;;;;;7.35;3.05;;;46.20;44.70;;;;;;4943199;29;20042;-83
2021/08/25 16:13:14;;;;;;;7.10;3.20;;;45.90;45.90;;;;;;4901149;29;20075;-83
2021/08/25 16:15:40;;;;;;;4.60;2.70;;;45.60;46.20;;;;;;4924776;29;20019;-83
2021/08/25 16:18:06;;;;;;;8.48;3.30;;;45.20;44.80;;;;;;4923518;29;20443;-82
2021/08/25 16:20:31;;;;;;;5.57;2.90;;;43.80;43.10;;;;;;4906799;29;20027;-84
2021/08/25 16:22:59;;;;;;;5.85;2.80;;;42.10;42.80;;;;;;4939455;29;20034;-86
2021/08/25 16:25:29;;;;;;;7.57;3.47;;;40.50;44.60;;;;;;4925579;29;20024;-88
2021/08/25 16:27:54;;;;;;;6.65;2.92;;;39.00;45.90;;;;;;4926517;29;20115;-84
2021/08/25 16:30:52;;;;;;;6.53;3.13;;;37.60;47.20;;;;;;4938805;29;20036;-82
2021/08/25 16:33:18;;;;;;;6.15;3.05;;;36.40;51.40;;;;;;4912114;29;20032;-85
2021/08/25 16:35:44;;;;;;;6.85;3.13;;;35.60;49.00;;;;;;4921719;29;20035;-85
2021/08/25 16:38:10;;;;;;;6.88;3.15;;;34.70;50.90;;;;;;4923248;29;20035;-85
2021/08/25 16:40:36;;;;;;;6.43;2.88;;;34.10;51.90;;;;;;4938985;29;20030;-83
2021/08/25 16:43:02;;;;;;;6.55;3.15;;;33.60;53.00;;;;;;4920859;29;20023;-83
2021/08/25 16:45:28;;;;;;;6.68;2.85;;;33.10;53.80;;;;;;4922792;29;20031;-82
2021/08/25 16:47:58;;;;;;;6.38;3.00;;;32.70;53.10;;;;;;4929225;29;20027;-86
2021/08/25 16:50:24;;;;;;;6.93;3.17;;;32.30;54.70;;;;;;4929114;29;20042;-83
2021/08/25 16:52:52;;;;;;;7.93;3.83;;;32.00;55.40;;;;;;4924185;29;20024;-81
2021/08/25 16:55:18;;;;;;;8.45;3.58;;;31.60;55.30;;;;;;4937248;29;20107;-82
2021/08/25 16:57:43;;;;;;;6.95;3.30;;;31.30;55.80;;;;;;4919062;29;20084;-82
2021/08/25 17:00:11;;;;;;;7.25;3.22;;;31.00;56.20;;;;;;4936005;29;20500;-82
2021/08/25 17:02:38;;;;;;;7.55;3.40;;;30.70;56.20;;;;;;4934311;29;20102;-86
2021/08/25 17:05:04;;;;;;;7.95;3.30;;;30.40;56.60;;;;;;4919151;29;20034;-86
2021/08/25 17:07:30;;;;;;;7.55;3.05;;;30.10;57.60;;;;;;4921381;29;20024;-86
2021/08/25 17:09:57;;;;;;;7.75;3.25;;;29.90;57.60;;;;;;4927016;29;20028;-86
2021/08/25 17:12:32;;;;;;;6.82;2.90;;;29.60;57.70;;;;;;4920157;29;20051;-83
2021/08/25 17:14:59;;;;;;;7.40;3.50;;;29.20;58.00;;;;;;4920187;29;20020;-85
2021/08/25 17:17:25;;;;;;;11.13;6.60;;;28.80;58.00;;;;;;4919204;29;20040;-84
2021/08/25 17:20:11;;;;;;;8.77;3.40;;;28.60;58.00;;;;;;4920099;29;20028;-84
2021/08/25 17:22:37;;;;;;;7.65;2.92;;;28.20;59.00;;;;;;4913729;29;20028;-86
2021/08/25 17:25:05;;;;;;;7.75;4.10;;;27.90;59.10;;;;;;4920461;29;20034;-86
2021/08/25 17:27:31;;;;;;;8.10;3.22;;;27.70;58.90;;;;;;4937118;29;20034;-86
2021/08/25 17:30:00;;;;;;;8.38;3.53;;;27.40;59.70;;;;;;4919848;29;20407;-87
2021/08/25 17:32:26;;;;;;;8.77;3.38;;;27.30;59.60;;;;;;4920363;29;20031;-88
2021/08/25 17:34:54;;;;;;;7.35;3.10;;;27.00;60.20;;;;;;4921674;29;20032;-91
2021/08/25 17:37:20;;;;;;;8.48;3.80;;;26.80;60.80;;;;;;4906791;29;20032;-88
2021/08/25 17:39:47;;;;;;;6.38;3.15;;;26.60;61.40;;;;;;4922471;29;20023;-91
2021/08/25 17:42:13;;;;;;;6.82;3.13;;;26.50;61.30;;;;;;4922675;29;20078;-90
2021/08/25 17:44:39;;;;;;;8.95;3.13;;;26.40;61.50;;;;;;4925264;29;20472;-87
2021/08/25 17:47:05;;;;;;;8.13;3.22;;;26.20;61.40;;;;;;4924132;29;20066;-86
2021/08/25 17:49:31;;;;;;;8.35;3.28;;;26.00;61.50;;;;;;4923300;29;20043;-84
2021/08/25 17:51:57;;;;;;;8.05;3.15;;;25.70;61.80;;;;;;4923276;29;20067;-86
2021/08/25 17:54:26;;;;;;;8.27;3.40;;;25.70;62.10;;;;;;4923002;29;20490;-84
2021/08/25 17:56:51;;;;;;;7.38;3.28;;;25.60;62.50;;;;;;4939747;29;20448;-84
2021/08/25 17:59:17;;;;;;;7.57;3.25;;;25.40;63.00;;;;;;4923328;29;20043;-84
2021/08/25 18:01:54;;;;;;;7.72;3.60;;;25.10;62.80;;;;;;4922841;29;20074;-84
2021/08/25 18:04:27;;;;;;;7.43;3.22;;;25.10;62.70;;;;;;4919676;29;20063;-86
2021/08/25 18:06:57;;;;;;;9.65;3.08;;;24.90;63.00;;;;;;4921455;29;20079;-85
2021/08/25 18:09:33;;;;;;;;;;;;;;;;;;;;;
2021/08/25 18:12:14;;;;;;;8.85;3.45;;;24.50;63.70;;;;;;4945083;29;20106;-84
2021/08/25 18:14:40;;;;;;;8.90;3.50;;;24.40;64.20;;;;;;4901513;29;20028;-90
2021/08/25 18:17:10;;;;;;;7.78;3.35;;;24.30;64.60;;;;;;4911902;29;20068;-90
2021/08/25 18:19:42;;;;;;;8.57;3.38;;;24.10;64.30;;;;;;4934061;29;20471;-87
2021/08/25 18:22:08;;;;;;;7.97;3.38;;;23.90;64.40;;;;;;4929293;29;20510;-89
2021/08/25 18:24:40;;;;;;;9.88;3.50;;;23.70;64.60;;;;;;4931774;29;20039;-88
2021/08/25 18:27:08;;;;;;;8.18;3.65;;;23.60;64.80;;;;;;4930334;29;20036;-88
2021/08/25 18:29:34;;;;;;;7.85;3.58;;;23.40;64.90;;;;;;4927942;29;20388;-90